sensor_id;sensor_type;location;lat;lon;timestamp;P1;durP1;ratioP1;P2;durP2;ratioP2
31638;SDS011;18248;51.522;7.020;2023-03-01T00:00:14;16.80;;;8.30;;
31638;SDS011;18248;51.522;7.020;2023-03-01T00:03:12;14.68;;;7.88;;
31638;SDS011;18248;51.522;7.020;2023-03-01T00:06:11;16.55;;;7.85;;
31638;SDS011;18248;51.522;7.020;2023-03-01T00:09:10;14.98;;;7.10;;
31638;SDS011;18248;51.522;7.020;2023-03-01T00:12:08;11.93;;;7.28;;
31638;SDS011;18248;51.522;7.020;2023-03-01T00:15:07;16.55;;;8.35;;
31638;SDS011;18248;51.522;7.020;2023-03-01T00:18:06;13.85;;;7.35;;
31638;SDS011;18248;51.522;7.020;2023-03-01T00:21:06;16.73;;;8.57;;
31638;SDS011;18248;51.522;7.020;2023-03-01T00:24:04;15.07;;;8.07;;
31638;SDS011;18248;51.522;7.020;2023-03-01T00:27:03;14.95;;;7.47;;
31638;SDS011;18248;51.522;7.020;2023-03-01T00:30:02;16.67;;;7.80;;
31638;SDS011;18248;51.522;7.020;2023-03-01T00:33:00;14.95;;;7.10;;
31638;SDS011;18248;51.522;7.020;2023-03-01T00:36:01;11.98;;;6.97;;
31638;SDS011;18248;51.522;7.020;2023-03-01T00:39:00;17.00;;;6.70;;
31638;SDS011;18248;51.522;7.020;2023-03-01T00:41:59;14.57;;;6.95;;
31638;SDS011;18248;51.522;7.020;2023-03-01T00:44:58;12.63;;;7.15;;
31638;SDS011;18248;51.522;7.020;2023-03-01T00:47:56;15.93;;;6.82;;
31638;SDS011;18248;51.522;7.020;2023-03-01T00:50:55;13.60;;;7.30;;
31638;SDS011;18248;51.522;7.020;2023-03-01T00:53:54;14.95;;;7.07;;
31638;SDS011;18248;51.522;7.020;2023-03-01T00:56:54;15.38;;;7.60;;
31638;SDS011;18248;51.522;7.020;2023-03-01T00:59:53;17.73;;;7.85;;
31638;SDS011;18248;51.522;7.020;2023-03-01T01:02:51;17.05;;;8.73;;
31638;SDS011;18248;51.522;7.020;2023-03-01T01:05:51;13.65;;;7.00;;
31638;SDS011;18248;51.522;7.020;2023-03-01T01:08:50;14.65;;;6.40;;
31638;SDS011;18248;51.522;7.020;2023-03-01T01:11:52;13.43;;;7.38;;
31638;SDS011;18248;51.522;7.020;2023-03-01T01:14:50;15.38;;;8.50;;
31638;SDS011;18248;51.522;7.020;2023-03-01T01:17:50;13.70;;;7.20;;
31638;SDS011;18248;51.522;7.020;2023-03-01T01:20:49;13.43;;;6.95;;
31638;SDS011;18248;51.522;7.020;2023-03-01T01:23:48;12.57;;;6.80;;
31638;SDS011;18248;51.522;7.020;2023-03-01T01:26:47;12.43;;;6.57;;
31638;SDS011;18248;51.522;7.020;2023-03-01T01:29:45;12.93;;;7.80;;
31638;SDS011;18248;51.522;7.020;2023-03-01T01:32:44;14.48;;;7.15;;
31638;SDS011;18248;51.522;7.020;2023-03-01T01:35:44;15.27;;;8.80;;
31638;SDS011;18248;51.522;7.020;2023-03-01T01:38:43;16.25;;;7.70;;
31638;SDS011;18248;51.522;7.020;2023-03-01T01:41:42;17.45;;;6.95;;
31638;SDS011;18248;51.522;7.020;2023-03-01T01:44:42;14.32;;;7.78;;
31638;SDS011;18248;51.522;7.020;2023-03-01T01:47:43;19.02;;;8.98;;
31638;SDS011;18248;51.522;7.020;2023-03-01T01:50:47;16.87;;;8.17;;
31638;SDS011;18248;51.522;7.020;2023-03-01T01:53:56;18.58;;;7.97;;
31638;SDS011;18248;51.522;7.020;2023-03-01T01:56:59;15.30;;;7.97;;
31638;SDS011;18248;51.522;7.020;2023-03-01T02:00:05;14.00;;;8.27;;
31638;SDS011;18248;51.522;7.020;2023-03-01T02:03:08;15.13;;;7.63;;
31638;SDS011;18248;51.522;7.020;2023-03-01T02:06:22;14.25;;;7.32;;
31638;SDS011;18248;51.522;7.020;2023-03-01T02:09:26;17.00;;;8.27;;
31638;SDS011;18248;51.522;7.020;2023-03-01T02:12:25;16.65;;;8.95;;
31638;SDS011;18248;51.522;7.020;2023-03-01T02:15:24;14.45;;;7.55;;
31638;SDS011;18248;51.522;7.020;2023-03-01T02:18:24;15.38;;;9.18;;
31638;SDS011;18248;51.522;7.020;2023-03-01T02:24:47;15.63;;;8.45;;
31638;SDS011;18248;51.522;7.020;2023-03-01T02:31:08;14.43;;;7.53;;
31638;SDS011;18248;51.522;7.020;2023-03-01T02:34:27;11.05;;;7.00;;
31638;SDS011;18248;51.522;7.020;2023-03-01T02:37:27;14.57;;;7.97;;
31638;SDS011;18248;51.522;7.020;2023-03-01T02:40:27;15.82;;;8.00;;
31638;SDS011;18248;51.522;7.020;2023-03-01T02:43:29;15.85;;;9.20;;
31638;SDS011;18248;51.522;7.020;2023-03-01T02:46:30;17.23;;;9.15;;
31638;SDS011;18248;51.522;7.020;2023-03-01T02:49:30;19.67;;;10.18;;
31638;SDS011;18248;51.522;7.020;2023-03-01T02:52:41;21.35;;;11.55;;
31638;SDS011;18248;51.522;7.020;2023-03-01T02:55:45;19.27;;;11.18;;
31638;SDS011;18248;51.522;7.020;2023-03-01T02:58:44;16.85;;;9.68;;
31638;SDS011;18248;51.522;7.020;2023-03-01T03:01:45;16.58;;;8.48;;
31638;SDS011;18248;51.522;7.020;2023-03-01T03:04:44;19.10;;;10.50;;
31638;SDS011;18248;51.522;7.020;2023-03-01T03:07:43;13.60;;;7.93;;
31638;SDS011;18248;51.522;7.020;2023-03-01T03:10:43;14.77;;;8.02;;
31638;SDS011;18248;51.522;7.020;2023-03-01T03:13:43;16.05;;;8.25;;
31638;SDS011;18248;51.522;7.020;2023-03-01T03:19:45;12.45;;;6.93;;
31638;SDS011;18248;51.522;7.020;2023-03-01T03:22:48;14.02;;;7.47;;
31638;SDS011;18248;51.522;7.020;2023-03-01T03:25:49;16.70;;;9.27;;
31638;SDS011;18248;51.522;7.020;2023-03-01T03:28:53;13.65;;;8.02;;
31638;SDS011;18248;51.522;7.020;2023-03-01T03:34:50;17.30;;;8.30;;
31638;SDS011;18248;51.522;7.020;2023-03-01T03:37:49;21.05;;;10.68;;
31638;SDS011;18248;51.522;7.020;2023-03-01T03:41:01;20.92;;;10.75;;
31638;SDS011;18248;51.522;7.020;2023-03-01T03:44:01;14.35;;;8.20;;
31638;SDS011;18248;51.522;7.020;2023-03-01T03:47:00;14.95;;;8.25;;
31638;SDS011;18248;51.522;7.020;2023-03-01T03:49:58;18.40;;;8.80;;
31638;SDS011;18248;51.522;7.020;2023-03-01T03:52:57;18.50;;;10.85;;
31638;SDS011;18248;51.522;7.020;2023-03-01T03:55:59;20.80;;;9.73;;
31638;SDS011;18248;51.522;7.020;2023-03-01T03:58:57;17.50;;;9.02;;
31638;SDS011;18248;51.522;7.020;2023-03-01T04:01:56;19.55;;;11.07;;
31638;SDS011;18248;51.522;7.020;2023-03-01T04:04:54;21.58;;;11.68;;
31638;SDS011;18248;51.522;7.020;2023-03-01T04:07:53;20.75;;;10.70;;
31638;SDS011;18248;51.522;7.020;2023-03-01T04:11:02;21.85;;;12.15;;
31638;SDS011;18248;51.522;7.020;2023-03-01T04:14:22;16.47;;;9.40;;
31638;SDS011;18248;51.522;7.020;2023-03-01T04:17:20;19.17;;;9.85;;
31638;SDS011;18248;51.522;7.020;2023-03-01T04:20:20;16.77;;;9.07;;
31638;SDS011;18248;51.522;7.020;2023-03-01T04:23:23;24.05;;;11.23;;
31638;SDS011;18248;51.522;7.020;2023-03-01T04:26:22;18.88;;;9.88;;
31638;SDS011;18248;51.522;7.020;2023-03-01T04:29:21;21.08;;;10.27;;
31638;SDS011;18248;51.522;7.020;2023-03-01T04:32:21;24.17;;;12.60;;
31638;SDS011;18248;51.522;7.020;2023-03-01T04:35:19;16.35;;;9.48;;
31638;SDS011;18248;51.522;7.020;2023-03-01T04:38:18;23.13;;;10.55;;
31638;SDS011;18248;51.522;7.020;2023-03-01T04:41:18;17.20;;;9.82;;
31638;SDS011;18248;51.522;7.020;2023-03-01T04:44:19;20.33;;;10.02;;
31638;SDS011;18248;51.522;7.020;2023-03-01T04:47:18;26.60;;;11.57;;
31638;SDS011;18248;51.522;7.020;2023-03-01T04:50:17;15.63;;;8.95;;
31638;SDS011;18248;51.522;7.020;2023-03-01T04:53:18;22.92;;;11.23;;
31638;SDS011;18248;51.522;7.020;2023-03-01T04:56:16;25.63;;;12.38;;
31638;SDS011;18248;51.522;7.020;2023-03-01T04:59:17;17.42;;;9.30;;
31638;SDS011;18248;51.522;7.020;2023-03-01T05:02:20;21.30;;;11.10;;
31638;SDS011;18248;51.522;7.020;2023-03-01T05:05:19;21.15;;;11.70;;
31638;SDS011;18248;51.522;7.020;2023-03-01T05:08:23;20.13;;;10.00;;
31638;SDS011;18248;51.522;7.020;2023-03-01T05:11:21;24.67;;;12.98;;
31638;SDS011;18248;51.522;7.020;2023-03-01T05:14:20;24.25;;;13.48;;
31638;SDS011;18248;51.522;7.020;2023-03-01T05:17:19;24.42;;;13.40;;
31638;SDS011;18248;51.522;7.020;2023-03-01T05:20:18;20.98;;;10.70;;
31638;SDS011;18248;51.522;7.020;2023-03-01T05:23:20;21.20;;;10.75;;
31638;SDS011;18248;51.522;7.020;2023-03-01T05:26:19;25.23;;;13.35;;
31638;SDS011;18248;51.522;7.020;2023-03-01T05:29:20;15.32;;;9.05;;
31638;SDS011;18248;51.522;7.020;2023-03-01T05:32:22;15.82;;;9.45;;
31638;SDS011;18248;51.522;7.020;2023-03-01T05:35:21;16.92;;;9.27;;
31638;SDS011;18248;51.522;7.020;2023-03-01T05:38:20;22.38;;;9.43;;
31638;SDS011;18248;51.522;7.020;2023-03-01T05:41:20;20.48;;;10.77;;
31638;SDS011;18248;51.522;7.020;2023-03-01T05:44:18;21.10;;;10.35;;
31638;SDS011;18248;51.522;7.020;2023-03-01T05:47:18;21.13;;;9.57;;
31638;SDS011;18248;51.522;7.020;2023-03-01T05:50:20;18.85;;;10.38;;
31638;SDS011;18248;51.522;7.020;2023-03-01T05:53:20;22.77;;;12.30;;
31638;SDS011;18248;51.522;7.020;2023-03-01T05:56:19;23.15;;;12.13;;
31638;SDS011;18248;51.522;7.020;2023-03-01T05:59:20;22.30;;;11.90;;
31638;SDS011;18248;51.522;7.020;2023-03-01T06:02:18;20.63;;;10.23;;
31638;SDS011;18248;51.522;7.020;2023-03-01T06:05:17;19.40;;;9.60;;
31638;SDS011;18248;51.522;7.020;2023-03-01T06:08:16;28.27;;;10.10;;
31638;SDS011;18248;51.522;7.020;2023-03-01T06:11:15;22.58;;;11.40;;
31638;SDS011;18248;51.522;7.020;2023-03-01T06:14:14;26.02;;;14.75;;
31638;SDS011;18248;51.522;7.020;2023-03-01T06:17:12;25.33;;;13.60;;
31638;SDS011;18248;51.522;7.020;2023-03-01T06:20:12;28.38;;;13.98;;
31638;SDS011;18248;51.522;7.020;2023-03-01T06:23:13;17.85;;;10.70;;
31638;SDS011;18248;51.522;7.020;2023-03-01T06:26:11;26.55;;;11.52;;
31638;SDS011;18248;51.522;7.020;2023-03-01T06:29:10;26.33;;;13.48;;
31638;SDS011;18248;51.522;7.020;2023-03-01T06:32:09;20.65;;;10.85;;
31638;SDS011;18248;51.522;7.020;2023-03-01T06:35:07;21.77;;;11.13;;
31638;SDS011;18248;51.522;7.020;2023-03-01T06:38:08;22.35;;;9.32;;
31638;SDS011;18248;51.522;7.020;2023-03-01T06:41:07;25.77;;;11.32;;
31638;SDS011;18248;51.522;7.020;2023-03-01T06:44:05;28.38;;;14.63;;
31638;SDS011;18248;51.522;7.020;2023-03-01T06:47:04;25.58;;;12.35;;
31638;SDS011;18248;51.522;7.020;2023-03-01T06:50:03;20.55;;;10.70;;
31638;SDS011;18248;51.522;7.020;2023-03-01T06:53:02;22.48;;;11.48;;
31638;SDS011;18248;51.522;7.020;2023-03-01T06:56:00;24.13;;;11.48;;
31638;SDS011;18248;51.522;7.020;2023-03-01T06:58:59;22.10;;;13.02;;
31638;SDS011;18248;51.522;7.020;2023-03-01T07:01:58;21.55;;;10.93;;
31638;SDS011;18248;51.522;7.020;2023-03-01T07:04:56;22.90;;;11.65;;
31638;SDS011;18248;51.522;7.020;2023-03-01T07:07:55;22.25;;;11.35;;
31638;SDS011;18248;51.522;7.020;2023-03-01T07:10:58;27.05;;;12.10;;
31638;SDS011;18248;51.522;7.020;2023-03-01T07:13:57;22.73;;;12.55;;
31638;SDS011;18248;51.522;7.020;2023-03-01T07:16:56;23.92;;;11.30;;
31638;SDS011;18248;51.522;7.020;2023-03-01T07:19:56;26.83;;;12.07;;
31638;SDS011;18248;51.522;7.020;2023-03-01T07:22:55;20.13;;;10.88;;
31638;SDS011;18248;51.522;7.020;2023-03-01T07:25:56;29.77;;;12.95;;
31638;SDS011;18248;51.522;7.020;2023-03-01T07:28:55;26.52;;;11.80;;
31638;SDS011;18248;51.522;7.020;2023-03-01T07:31:58;26.75;;;13.52;;
31638;SDS011;18248;51.522;7.020;2023-03-01T07:34:56;22.27;;;12.07;;
31638;SDS011;18248;51.522;7.020;2023-03-01T07:37:55;23.35;;;12.10;;
31638;SDS011;18248;51.522;7.020;2023-03-01T07:40:57;24.42;;;12.15;;
31638;SDS011;18248;51.522;7.020;2023-03-01T07:43:57;26.67;;;12.80;;
31638;SDS011;18248;51.522;7.020;2023-03-01T07:46:56;24.83;;;11.95;;
31638;SDS011;18248;51.522;7.020;2023-03-01T07:49:56;29.35;;;14.30;;
31638;SDS011;18248;51.522;7.020;2023-03-01T07:52:54;25.02;;;13.27;;
31638;SDS011;18248;51.522;7.020;2023-03-01T07:59:05;25.88;;;12.02;;
31638;SDS011;18248;51.522;7.020;2023-03-01T08:02:03;23.55;;;12.30;;
31638;SDS011;18248;51.522;7.020;2023-03-01T08:05:02;21.33;;;11.52;;
31638;SDS011;18248;51.522;7.020;2023-03-01T08:08:01;22.05;;;13.00;;
31638;SDS011;18248;51.522;7.020;2023-03-01T08:11:03;23.38;;;11.93;;
31638;SDS011;18248;51.522;7.020;2023-03-01T08:14:03;24.67;;;12.10;;
31638;SDS011;18248;51.522;7.020;2023-03-01T08:17:02;19.30;;;10.88;;
31638;SDS011;18248;51.522;7.020;2023-03-01T08:20:01;21.58;;;11.77;;
31638;SDS011;18248;51.522;7.020;2023-03-01T08:23:01;19.35;;;10.45;;
31638;SDS011;18248;51.522;7.020;2023-03-01T08:26:03;25.00;;;11.57;;
31638;SDS011;18248;51.522;7.020;2023-03-01T08:29:04;21.40;;;10.93;;
31638;SDS011;18248;51.522;7.020;2023-03-01T08:32:02;21.40;;;11.50;;
31638;SDS011;18248;51.522;7.020;2023-03-01T08:35:01;21.67;;;10.55;;
31638;SDS011;18248;51.522;7.020;2023-03-01T08:37:59;18.52;;;10.05;;
31638;SDS011;18248;51.522;7.020;2023-03-01T08:41:02;22.95;;;11.40;;
31638;SDS011;18248;51.522;7.020;2023-03-01T08:44:02;21.45;;;11.45;;
31638;SDS011;18248;51.522;7.020;2023-03-01T08:47:04;22.67;;;9.68;;
31638;SDS011;18248;51.522;7.020;2023-03-01T08:50:03;21.08;;;10.80;;
31638;SDS011;18248;51.522;7.020;2023-03-01T08:53:02;21.80;;;10.90;;
31638;SDS011;18248;51.522;7.020;2023-03-01T08:56:01;21.30;;;11.48;;
31638;SDS011;18248;51.522;7.020;2023-03-01T08:59:02;20.80;;;10.65;;
31638;SDS011;18248;51.522;7.020;2023-03-01T09:02:03;21.48;;;11.45;;
31638;SDS011;18248;51.522;7.020;2023-03-01T09:05:10;23.17;;;11.20;;
31638;SDS011;18248;51.522;7.020;2023-03-01T09:08:09;30.60;;;11.73;;
31638;SDS011;18248;51.522;7.020;2023-03-01T09:11:09;22.73;;;10.93;;
31638;SDS011;18248;51.522;7.020;2023-03-01T09:14:09;26.98;;;11.45;;
31638;SDS011;18248;51.522;7.020;2023-03-01T09:17:09;23.63;;;11.63;;
31638;SDS011;18248;51.522;7.020;2023-03-01T09:20:07;17.85;;;9.63;;
31638;SDS011;18248;51.522;7.020;2023-03-01T09:23:06;23.33;;;11.27;;
31638;SDS011;18248;51.522;7.020;2023-03-01T09:26:06;22.70;;;11.13;;
31638;SDS011;18248;51.522;7.020;2023-03-01T09:29:06;22.13;;;10.52;;
31638;SDS011;18248;51.522;7.020;2023-03-01T09:32:07;19.50;;;9.95;;
31638;SDS011;18248;51.522;7.020;2023-03-01T09:35:06;21.88;;;10.00;;
31638;SDS011;18248;51.522;7.020;2023-03-01T09:38:05;23.13;;;10.73;;
31638;SDS011;18248;51.522;7.020;2023-03-01T09:41:09;17.70;;;10.23;;
31638;SDS011;18248;51.522;7.020;2023-03-01T09:47:40;19.30;;;9.43;;
31638;SDS011;18248;51.522;7.020;2023-03-01T09:50:39;17.85;;;10.13;;
31638;SDS011;18248;51.522;7.020;2023-03-01T09:53:41;19.55;;;9.77;;
31638;SDS011;18248;51.522;7.020;2023-03-01T09:56:40;16.75;;;8.68;;
31638;SDS011;18248;51.522;7.020;2023-03-01T10:03:01;14.93;;;8.88;;
31638;SDS011;18248;51.522;7.020;2023-03-01T10:09:16;12.27;;;6.97;;
31638;SDS011;18248;51.522;7.020;2023-03-01T10:12:19;16.20;;;8.10;;
31638;SDS011;18248;51.522;7.020;2023-03-01T10:15:28;17.38;;;8.23;;
31638;SDS011;18248;51.522;7.020;2023-03-01T10:18:36;16.83;;;7.93;;
31638;SDS011;18248;51.522;7.020;2023-03-01T10:21:39;17.30;;;7.90;;
31638;SDS011;18248;51.522;7.020;2023-03-01T10:24:42;18.13;;;8.55;;
31638;SDS011;18248;51.522;7.020;2023-03-01T10:30:50;16.38;;;7.80;;
31638;SDS011;18248;51.522;7.020;2023-03-01T10:33:49;14.93;;;7.32;;
31638;SDS011;18248;51.522;7.020;2023-03-01T10:36:53;13.15;;;7.00;;
31638;SDS011;18248;51.522;7.020;2023-03-01T10:40:16;14.43;;;7.70;;
31638;SDS011;18248;51.522;7.020;2023-03-01T10:43:16;20.05;;;7.45;;
31638;SDS011;18248;51.522;7.020;2023-03-01T10:49:34;13.02;;;7.25;;
31638;SDS011;18248;51.522;7.020;2023-03-01T10:52:34;11.50;;;6.15;;
31638;SDS011;18248;51.522;7.020;2023-03-01T10:55:38;14.32;;;6.63;;
31638;SDS011;18248;51.522;7.020;2023-03-01T10:58:38;15.35;;;7.32;;
31638;SDS011;18248;51.522;7.020;2023-03-01T11:01:38;13.85;;;6.45;;
31638;SDS011;18248;51.522;7.020;2023-03-01T11:04:38;11.65;;;6.78;;
31638;SDS011;18248;51.522;7.020;2023-03-01T11:07:56;11.88;;;6.22;;
31638;SDS011;18248;51.522;7.020;2023-03-01T11:11:38;11.48;;;6.28;;
31638;SDS011;18248;51.522;7.020;2023-03-01T11:14:31;13.15;;;6.63;;
31638;SDS011;18248;51.522;7.020;2023-03-01T11:17:34;9.50;;;6.15;;
31638;SDS011;18248;51.522;7.020;2023-03-01T11:20:36;15.52;;;7.25;;
31638;SDS011;18248;51.522;7.020;2023-03-01T11:23:36;13.82;;;6.90;;
31638;SDS011;18248;51.522;7.020;2023-03-01T11:26:38;11.07;;;6.95;;
31638;SDS011;18248;51.522;7.020;2023-03-01T11:29:42;9.95;;;6.57;;
31638;SDS011;18248;51.522;7.020;2023-03-01T11:32:46;14.52;;;6.35;;
31638;SDS011;18248;51.522;7.020;2023-03-01T11:43:28;14.73;;;6.47;;
31638;SDS011;18248;51.522;7.020;2023-03-01T11:46:43;14.07;;;7.00;;
31638;SDS011;18248;51.522;7.020;2023-03-01T11:50:07;13.10;;;7.22;;
31638;SDS011;18248;51.522;7.020;2023-03-01T11:56:39;14.77;;;6.50;;
31638;SDS011;18248;51.522;7.020;2023-03-01T12:06:41;16.42;;;8.27;;
31638;SDS011;18248;51.522;7.020;2023-03-01T12:10:08;13.25;;;6.32;;
31638;SDS011;18248;51.522;7.020;2023-03-01T12:36:20;12.00;;;5.93;;
31638;SDS011;18248;51.522;7.020;2023-03-01T12:39:49;14.65;;;6.03;;
31638;SDS011;18248;51.522;7.020;2023-03-01T12:46:27;14.02;;;6.55;;
31638;SDS011;18248;51.522;7.020;2023-03-01T12:49:37;13.18;;;5.40;;
31638;SDS011;18248;51.522;7.020;2023-03-01T12:52:56;11.50;;;6.13;;
31638;SDS011;18248;51.522;7.020;2023-03-01T12:55:57;12.27;;;6.15;;
31638;SDS011;18248;51.522;7.020;2023-03-01T12:59:04;11.68;;;6.10;;
31638;SDS011;18248;51.522;7.020;2023-03-01T13:02:22;15.50;;;6.60;;
31638;SDS011;18248;51.522;7.020;2023-03-01T13:09:11;10.30;;;5.97;;
31638;SDS011;18248;51.522;7.020;2023-03-01T13:15:42;16.35;;;6.65;;
31638;SDS011;18248;51.522;7.020;2023-03-01T13:18:41;11.20;;;6.70;;
31638;SDS011;18248;51.522;7.020;2023-03-01T13:21:40;14.85;;;7.07;;
31638;SDS011;18248;51.522;7.020;2023-03-01T13:24:39;13.80;;;7.05;;
31638;SDS011;18248;51.522;7.020;2023-03-01T13:27:39;12.27;;;6.95;;
31638;SDS011;18248;51.522;7.020;2023-03-01T13:30:39;11.38;;;6.85;;
31638;SDS011;18248;51.522;7.020;2023-03-01T13:33:43;14.45;;;6.70;;
31638;SDS011;18248;51.522;7.020;2023-03-01T13:36:46;11.68;;;6.80;;
31638;SDS011;18248;51.522;7.020;2023-03-01T13:39:45;15.80;;;7.28;;
31638;SDS011;18248;51.522;7.020;2023-03-01T13:42:55;14.73;;;6.57;;
31638;SDS011;18248;51.522;7.020;2023-03-01T13:45:54;12.38;;;6.72;;
31638;SDS011;18248;51.522;7.020;2023-03-01T13:48:53;14.60;;;7.53;;
31638;SDS011;18248;51.522;7.020;2023-03-01T13:51:54;13.20;;;6.97;;
31638;SDS011;18248;51.522;7.020;2023-03-01T13:54:54;13.63;;;7.03;;
31638;SDS011;18248;51.522;7.020;2023-03-01T13:57:55;11.65;;;7.32;;
31638;SDS011;18248;51.522;7.020;2023-03-01T14:01:00;19.27;;;7.90;;
31638;SDS011;18248;51.522;7.020;2023-03-01T14:04:00;11.65;;;7.65;;
31638;SDS011;18248;51.522;7.020;2023-03-01T14:07:18;15.93;;;7.43;;
31638;SDS011;18248;51.522;7.020;2023-03-01T14:10:17;10.85;;;7.28;;
31638;SDS011;18248;51.522;7.020;2023-03-01T14:16:43;13.18;;;7.78;;
31638;SDS011;18248;51.522;7.020;2023-03-01T14:20:12;12.43;;;8.15;;
31638;SDS011;18248;51.522;7.020;2023-03-01T14:23:18;14.98;;;9.05;;
31638;SDS011;18248;51.522;7.020;2023-03-01T14:26:21;30.30;;;9.88;;
31638;SDS011;18248;51.522;7.020;2023-03-01T14:29:29;20.40;;;8.77;;
31638;SDS011;18248;51.522;7.020;2023-03-01T14:32:33;16.45;;;9.20;;
31638;SDS011;18248;51.522;7.020;2023-03-01T14:35:33;13.40;;;8.68;;
31638;SDS011;18248;51.522;7.020;2023-03-01T14:38:34;13.85;;;8.77;;
31638;SDS011;18248;51.522;7.020;2023-03-01T14:41:35;16.17;;;9.13;;
31638;SDS011;18248;51.522;7.020;2023-03-01T14:44:34;13.27;;;8.50;;
31638;SDS011;18248;51.522;7.020;2023-03-01T14:47:35;15.10;;;8.45;;
31638;SDS011;18248;51.522;7.020;2023-03-01T14:50:40;20.20;;;8.52;;
31638;SDS011;18248;51.522;7.020;2023-03-01T14:53:40;14.25;;;8.00;;
31638;SDS011;18248;51.522;7.020;2023-03-01T14:56:44;16.13;;;7.55;;
31638;SDS011;18248;51.522;7.020;2023-03-01T14:59:43;14.82;;;7.60;;
31638;SDS011;18248;51.522;7.020;2023-03-01T15:02:42;13.35;;;7.63;;
31638;SDS011;18248;51.522;7.020;2023-03-01T15:05:43;15.02;;;7.38;;
31638;SDS011;18248;51.522;7.020;2023-03-01T15:08:44;14.57;;;7.38;;
31638;SDS011;18248;51.522;7.020;2023-03-01T15:11:45;13.65;;;6.78;;
31638;SDS011;18248;51.522;7.020;2023-03-01T15:14:45;13.38;;;7.65;;
31638;SDS011;18248;51.522;7.020;2023-03-01T15:17:48;12.93;;;7.28;;
31638;SDS011;18248;51.522;7.020;2023-03-01T15:20:53;13.32;;;7.75;;
31638;SDS011;18248;51.522;7.020;2023-03-01T15:24:00;16.13;;;7.55;;
31638;SDS011;18248;51.522;7.020;2023-03-01T15:27:21;13.60;;;7.47;;
31638;SDS011;18248;51.522;7.020;2023-03-01T15:30:26;15.68;;;7.80;;
31638;SDS011;18248;51.522;7.020;2023-03-01T15:33:36;12.63;;;6.53;;
31638;SDS011;18248;51.522;7.020;2023-03-01T15:36:45;13.95;;;7.47;;
31638;SDS011;18248;51.522;7.020;2023-03-01T15:39:54;14.68;;;7.57;;
31638;SDS011;18248;51.522;7.020;2023-03-01T15:42:54;14.23;;;7.28;;
31638;SDS011;18248;51.522;7.020;2023-03-01T15:45:56;10.65;;;6.07;;
31638;SDS011;18248;51.522;7.020;2023-03-01T15:48:56;13.32;;;7.20;;
31638;SDS011;18248;51.522;7.020;2023-03-01T15:51:57;11.27;;;6.68;;
31638;SDS011;18248;51.522;7.020;2023-03-01T15:54:58;19.13;;;6.57;;
31638;SDS011;18248;51.522;7.020;2023-03-01T16:00:59;10.82;;;6.80;;
31638;SDS011;18248;51.522;7.020;2023-03-01T16:03:57;12.90;;;6.93;;
31638;SDS011;18248;51.522;7.020;2023-03-01T16:06:57;12.40;;;7.30;;
31638;SDS011;18248;51.522;7.020;2023-03-01T16:09:56;12.07;;;6.68;;
31638;SDS011;18248;51.522;7.020;2023-03-01T16:12:56;14.52;;;7.30;;
31638;SDS011;18248;51.522;7.020;2023-03-01T16:15:54;11.95;;;6.95;;
31638;SDS011;18248;51.522;7.020;2023-03-01T16:18:53;11.48;;;6.57;;
31638;SDS011;18248;51.522;7.020;2023-03-01T16:21:52;12.63;;;6.70;;
31638;SDS011;18248;51.522;7.020;2023-03-01T16:24:51;12.30;;;7.63;;
31638;SDS011;18248;51.522;7.020;2023-03-01T16:27:50;14.63;;;7.78;;
31638;SDS011;18248;51.522;7.020;2023-03-01T16:30:48;11.98;;;6.88;;
31638;SDS011;18248;51.522;7.020;2023-03-01T16:33:48;11.60;;;6.85;;
31638;SDS011;18248;51.522;7.020;2023-03-01T16:36:48;13.27;;;7.60;;
31638;SDS011;18248;51.522;7.020;2023-03-01T16:39:47;15.98;;;8.02;;
31638;SDS011;18248;51.522;7.020;2023-03-01T16:42:48;13.00;;;6.55;;
31638;SDS011;18248;51.522;7.020;2023-03-01T16:45:47;12.23;;;7.40;;
31638;SDS011;18248;51.522;7.020;2023-03-01T16:48:46;14.50;;;7.18;;
31638;SDS011;18248;51.522;7.020;2023-03-01T16:51:45;12.13;;;7.20;;
31638;SDS011;18248;51.522;7.020;2023-03-01T16:54:44;12.57;;;7.13;;
31638;SDS011;18248;51.522;7.020;2023-03-01T16:57:42;12.60;;;6.45;;
31638;SDS011;18248;51.522;7.020;2023-03-01T17:00:41;13.85;;;6.68;;
31638;SDS011;18248;51.522;7.020;2023-03-01T17:03:39;15.95;;;6.65;;
31638;SDS011;18248;51.522;7.020;2023-03-01T17:06:39;15.07;;;6.60;;
31638;SDS011;18248;51.522;7.020;2023-03-01T17:09:37;16.02;;;6.63;;
31638;SDS011;18248;51.522;7.020;2023-03-01T17:12:36;14.48;;;5.88;;
31638;SDS011;18248;51.522;7.020;2023-03-01T17:15:37;13.00;;;6.47;;
31638;SDS011;18248;51.522;7.020;2023-03-01T17:18:36;14.07;;;6.47;;
31638;SDS011;18248;51.522;7.020;2023-03-01T17:21:35;14.50;;;7.15;;
31638;SDS011;18248;51.522;7.020;2023-03-01T17:24:35;12.88;;;6.32;;
31638;SDS011;18248;51.522;7.020;2023-03-01T17:27:37;15.77;;;7.07;;
31638;SDS011;18248;51.522;7.020;2023-03-01T17:30:36;12.00;;;6.30;;
31638;SDS011;18248;51.522;7.020;2023-03-01T17:33:35;13.20;;;6.97;;
31638;SDS011;18248;51.522;7.020;2023-03-01T17:36:33;12.93;;;6.88;;
31638;SDS011;18248;51.522;7.020;2023-03-01T17:39:38;13.80;;;6.90;;
31638;SDS011;18248;51.522;7.020;2023-03-01T17:42:37;14.45;;;6.80;;
31638;SDS011;18248;51.522;7.020;2023-03-01T17:45:36;12.68;;;7.28;;
31638;SDS011;18248;51.522;7.020;2023-03-01T17:48:35;15.13;;;7.78;;
31638;SDS011;18248;51.522;7.020;2023-03-01T17:51:34;13.52;;;7.80;;
31638;SDS011;18248;51.522;7.020;2023-03-01T17:54:33;18.02;;;6.63;;
31638;SDS011;18248;51.522;7.020;2023-03-01T17:57:32;13.55;;;7.15;;
31638;SDS011;18248;51.522;7.020;2023-03-01T18:00:31;17.05;;;7.60;;
31638;SDS011;18248;51.522;7.020;2023-03-01T18:03:30;13.20;;;6.60;;
31638;SDS011;18248;51.522;7.020;2023-03-01T18:06:30;13.63;;;7.93;;
31638;SDS011;18248;51.522;7.020;2023-03-01T18:09:29;13.07;;;8.02;;
31638;SDS011;18248;51.522;7.020;2023-03-01T18:12:28;15.65;;;7.65;;
31638;SDS011;18248;51.522;7.020;2023-03-01T18:15:27;16.20;;;7.82;;
31638;SDS011;18248;51.522;7.020;2023-03-01T18:18:26;13.45;;;7.28;;
31638;SDS011;18248;51.522;7.020;2023-03-01T18:21:25;17.17;;;7.82;;
31638;SDS011;18248;51.522;7.020;2023-03-01T18:24:27;15.68;;;7.50;;
31638;SDS011;18248;51.522;7.020;2023-03-01T18:27:26;12.48;;;6.82;;
31638;SDS011;18248;51.522;7.020;2023-03-01T18:30:24;15.23;;;8.18;;
31638;SDS011;18248;51.522;7.020;2023-03-01T18:33:24;17.42;;;8.45;;
31638;SDS011;18248;51.522;7.020;2023-03-01T18:36:24;19.45;;;8.68;;
31638;SDS011;18248;51.522;7.020;2023-03-01T18:39:24;15.43;;;7.90;;
31638;SDS011;18248;51.522;7.020;2023-03-01T18:42:23;14.82;;;7.88;;
31638;SDS011;18248;51.522;7.020;2023-03-01T18:45:22;13.32;;;7.35;;
31638;SDS011;18248;51.522;7.020;2023-03-01T18:48:20;14.55;;;7.68;;
31638;SDS011;18248;51.522;7.020;2023-03-01T18:51:23;15.07;;;7.80;;
31638;SDS011;18248;51.522;7.020;2023-03-01T18:54:23;14.60;;;7.75;;
31638;SDS011;18248;51.522;7.020;2023-03-01T18:57:21;15.98;;;8.05;;
31638;SDS011;18248;51.522;7.020;2023-03-01T19:00:22;17.85;;;8.60;;
31638;SDS011;18248;51.522;7.020;2023-03-01T19:03:20;17.35;;;7.78;;
31638;SDS011;18248;51.522;7.020;2023-03-01T19:06:19;16.50;;;8.30;;
31638;SDS011;18248;51.522;7.020;2023-03-01T19:09:19;17.60;;;7.70;;
31638;SDS011;18248;51.522;7.020;2023-03-01T19:12:17;17.33;;;8.82;;
31638;SDS011;18248;51.522;7.020;2023-03-01T19:15:19;14.85;;;8.32;;
31638;SDS011;18248;51.522;7.020;2023-03-01T19:18:20;17.25;;;9.07;;
31638;SDS011;18248;51.522;7.020;2023-03-01T19:21:19;19.70;;;8.63;;